Pagrindinis puslapis
METAR-TAF:

METAR-TAF

Oro uostai :

Kemis, Suomija

platuma: 65-47N, ilguma: 024-35E, Aukštis: 15 m

Dabartinis oras

Ataskaita buvo paskelbta 26 minutes, ne 09:20 UTC
Vėjas 5 kt iš Rytų/Šiaurės Rytų, svyruoja nuo Šiaurės ir Pietų/Pietryčių
Temperatūra 17°C
Drėgmė 55%
Slėgis 1010 hPa
Matomumas 10 km arba daugiau
nėra debesų žemiau 1500 m ir nėra kamuolinių lietaus debesų

METAR: EFKE 170920Z AUTO 07005KT 010V150 CAVOK 17/08 Q1010

Laikas: 12:46 (09:46 UTC)

Prognozė

Ataskaita buvo paskelbta 4 valandos ir 16 minutes, ne 05:30 UTC
Prognozė galioja nuo 17 metu 06 UTC su 17 metu 09 UTC
Vėjas 3 kt iš Rytų/Pietryčių
Matomumas: 3000 m
Su prošvaistėmis ne aukštis 100 ft
rūkana
Tapsmas
nuo 17 metu 06 UTC su 17 metu 08 UTC
Matomumas 10 km arba daugiau
Mažai debesys ne aukštis 700 ft

TAF: EFKE 170530Z 1706/1709 12003KT 3000 BR BKN001 BECMG 1706/1708 9999 NSW FEW007

Orai ataskaitas ir orų prognozės (METAR, TAF).

turimą stotys yra geltonos ir raudonos taškus žemėlapyje.

Perkelti pele per norėdami pamatyti stoties vardą.

Tada spustelėkite, norėdami matyti oro stebėjimo ir prognozės.

Norėdami pakeisti žemėlapį: spustelėkite ant žalios mygtukų su juodo kryžiaus žemyn,; žalią mygtuką su brūkšneliu, jei norite nutolinti; arba žalių rodyklių gretimoms žemėlapius.


METAR-TAF: